createdAt,value
2017-12-13T00:00:45.771Z,100842.94
2017-12-13T00:03:20.568Z,100838.11
2017-12-13T00:05:55.160Z,100838.59
2017-12-13T00:08:29.965Z,100839.47
2017-12-13T00:11:04.620Z,100842.02
2017-12-13T00:13:39.356Z,100844.16
2017-12-13T00:16:14.431Z,100849.95
2017-12-13T00:18:49.096Z,100854.81
2017-12-13T00:21:24.020Z,100850.91
2017-12-13T00:23:58.905Z,100850.91
2017-12-13T00:26:33.452Z,100846.55
2017-12-13T00:29:08.439Z,100827.27
2017-12-13T00:31:43.373Z,100841.05
2017-12-13T00:34:18.400Z,100842.05
2017-12-13T00:36:53.124Z,100836.30
2017-12-13T00:39:28.021Z,100828.22
2017-12-13T00:42:02.776Z,100825.08
2017-12-13T00:44:37.652Z,100827.66
2017-12-13T00:47:12.480Z,100828.66
2017-12-13T00:49:47.443Z,100826.73
2017-12-13T00:52:22.296Z,100823.41
2017-12-13T00:54:57.244Z,100822.88
2017-12-13T00:57:31.891Z,100815.19
2017-12-13T01:00:06.851Z,100809.47
2017-12-13T01:02:41.600Z,100800.20
2017-12-13T01:05:16.410Z,100794.58
2017-12-13T01:07:51.232Z,100793.70
2017-12-13T01:10:25.956Z,100787.02
2017-12-13T01:13:00.689Z,100789.27
2017-12-13T01:15:35.372Z,100791.60
2017-12-13T01:18:10.144Z,100794.79
2017-12-13T01:20:44.976Z,100787.54
2017-12-13T01:23:19.784Z,100787.38
2017-12-13T01:25:54.512Z,100786.78
2017-12-13T01:28:29.357Z,100793.91
2017-12-13T01:31:04.188Z,100790.13
2017-12-13T01:33:38.916Z,100788.83
2017-12-13T01:36:13.379Z,100782.92
2017-12-13T01:38:48.450Z,100776.72
2017-12-13T01:41:23.596Z,100779.13
2017-12-13T01:43:58.524Z,100772.89
2017-12-13T01:46:33.257Z,100768.09
2017-12-13T01:49:08.232Z,100758.32
2017-12-13T01:51:42.884Z,100766.81
2017-12-13T01:54:17.611Z,100756.23
2017-12-13T01:56:52.774Z,100753.08
2017-12-13T01:59:27.671Z,100753.72
2017-12-13T02:02:02.436Z,100759.36
2017-12-13T02:04:36.828Z,100751.11
2017-12-13T02:07:11.928Z,100751.71
2017-12-13T02:09:46.835Z,100748.09
2017-12-13T02:12:21.221Z,100738.39
2017-12-13T02:14:56.163Z,100739.89
2017-12-13T02:17:30.564Z,100742.26
2017-12-13T02:20:05.165Z,100733.89
2017-12-13T02:22:39.846Z,100738.39
2017-12-13T02:25:14.877Z,100731.19
2017-12-13T02:27:49.708Z,100718.99
2017-12-13T02:30:24.480Z,100728.61
2017-12-13T02:32:59.303Z,100711.42
2017-12-13T02:35:34.136Z,100715.77
2017-12-13T02:38:08.963Z,100713.16
2017-12-13T02:40:54.984Z,100704.19
2017-12-13T02:43:29.400Z,100691.71
2017-12-13T02:46:04.103Z,100699.48
2017-12-13T02:48:38.829Z,100690.63
2017-12-13T02:51:13.532Z,100692.44
2017-12-13T02:53:48.431Z,100685.28
2017-12-13T02:56:23.004Z,100679.39
2017-12-13T02:58:57.820Z,100681.56
2017-12-13T03:01:32.912Z,100675.21
2017-12-13T03:04:07.744Z,100673.48
2017-12-13T03:06:42.588Z,100661.45
2017-12-13T03:09:17.121Z,100666.20
2017-12-13T03:11:52.435Z,100670.51
2017-12-13T03:14:26.788Z,100664.47
2017-12-13T03:17:01.875Z,100662.53
2017-12-13T03:19:36.903Z,100654.81
2017-12-13T03:22:11.532Z,100654.13
2017-12-13T03:24:46.487Z,100662.27
2017-12-13T03:27:21.484Z,100646.28
2017-12-13T03:29:56.408Z,100644.74
2017-12-13T03:32:31.020Z,100636.27
2017-12-13T03:35:05.808Z,100640.93
2017-12-13T03:37:40.576Z,100633.70
2017-12-13T03:40:15.277Z,100627.66
2017-12-13T03:42:50.091Z,100621.78
2017-12-13T03:45:24.855Z,100622.87
2017-12-13T03:47:59.640Z,100617.59
2017-12-13T03:50:34.395Z,100613.09
2017-12-13T03:53:09.211Z,100610.84
2017-12-13T03:55:44.072Z,100617.53
2017-12-13T03:58:18.944Z,100615.14
2017-12-13T04:00:53.496Z,100603.76
2017-12-13T04:03:28.532Z,100608.62
2017-12-13T04:06:03.126Z,100602.68
2017-12-13T04:08:37.989Z,100601.14
2017-12-13T04:11:12.712Z,100584.80
2017-12-13T04:13:47.332Z,100577.66
2017-12-13T04:16:22.091Z,100586.87
2017-12-13T04:18:56.923Z,100572.66
2017-12-13T04:21:31.392Z,100563.57
2017-12-13T04:24:06.337Z,100567.21
2017-12-13T04:26:41.277Z,100562.51
2017-12-13T04:29:16.105Z,100551.62
2017-12-13T04:31:50.852Z,100558.42
2017-12-13T04:34:25.660Z,100543.92
2017-12-13T04:37:00.392Z,100546.45
2017-12-13T04:39:35.016Z,100546.58
2017-12-13T04:42:09.840Z,100542.33
2017-12-13T04:44:44.547Z,100541.39
2017-12-13T04:47:19.308Z,100543.80
2017-12-13T04:49:54.136Z,100539.05
2017-12-13T04:52:28.880Z,100534.12
2017-12-13T04:55:03.798Z,100527.86
2017-12-13T04:57:38.542Z,100526.89
2017-12-13T05:00:12.908Z,100526.67
2017-12-13T05:02:47.945Z,100525.30
2017-12-13T05:05:22.876Z,100529.06
2017-12-13T05:07:57.671Z,100516.72
2017-12-13T05:10:32.073Z,100513.70
2017-12-13T05:13:06.856Z,100512.30
2017-12-13T05:15:41.757Z,100502.24
2017-12-13T05:18:16.354Z,100498.57
2017-12-13T05:20:51.407Z,100497.64
2017-12-13T05:23:26.236Z,100492.41
2017-12-13T05:26:00.950Z,100484.98
2017-12-13T05:28:35.804Z,100471.44
2017-12-13T05:31:10.524Z,100472.72
2017-12-13T05:33:45.490Z,100468.64
2017-12-13T05:36:20.277Z,100480.42
2017-12-13T05:38:55.108Z,100468.86
2017-12-13T05:41:29.737Z,100466.88
2017-12-13T05:44:04.160Z,100452.12
2017-12-13T05:46:39.196Z,100456.69
2017-12-13T05:49:13.968Z,100451.47
2017-12-13T05:51:50.422Z,100440.00
2017-12-13T05:54:25.732Z,100440.80
2017-12-13T05:57:00.432Z,100441.90
2017-12-13T05:59:35.260Z,100430.96
2017-12-13T06:02:10.004Z,100422.06
2017-12-13T06:04:44.765Z,100414.62
2017-12-13T06:07:19.476Z,100409.05
2017-12-13T06:09:54.444Z,100411.98
2017-12-13T06:12:29.395Z,100414.02
2017-12-13T06:15:04.109Z,100413.80
2017-12-13T06:17:39.012Z,100395.83
2017-12-13T06:20:13.660Z,100399.63
2017-12-13T06:22:48.388Z,100390.42
2017-12-13T06:25:23.240Z,100388.78
2017-12-13T06:27:58.145Z,100382.72
2017-12-13T06:30:33.076Z,100374.27
2017-12-13T06:33:08.095Z,100378.43
2017-12-13T06:35:42.414Z,100369.70
2017-12-13T06:38:16.874Z,100360.38
2017-12-13T06:40:51.712Z,100362.55
2017-12-13T06:43:26.683Z,100362.27
2017-12-13T06:46:01.692Z,100359.34
2017-12-13T06:48:36.671Z,100350.19
2017-12-13T06:51:11.504Z,100344.84
2017-12-13T06:53:46.144Z,100350.03
2017-12-13T06:56:20.984Z,100344.09
2017-12-13T06:58:55.907Z,100329.28
2017-12-13T07:01:30.551Z,100335.31
2017-12-13T07:04:05.283Z,100336.75
2017-12-13T07:06:40.037Z,100329.25
2017-12-13T07:09:14.740Z,100323.42
2017-12-13T07:11:49.820Z,100315.63
2017-12-13T07:14:24.176Z,100321.50
2017-12-13T07:16:59.055Z,100317.50
2017-12-13T07:19:33.849Z,100293.21
2017-12-13T07:22:08.492Z,100300.34
2017-12-13T07:24:43.213Z,100298.05
2017-12-13T07:27:17.573Z,100286.95
2017-12-13T07:29:52.128Z,100292.39
2017-12-13T07:32:27.161Z,100274.34
2017-12-13T07:35:01.917Z,100281.11
2017-12-13T07:37:36.736Z,100274.17
2017-12-13T07:40:11.491Z,100270.14
2017-12-13T07:42:45.840Z,100260.88
2017-12-13T07:45:20.572Z,100248.95
2017-12-13T07:47:55.455Z,100241.66
2017-12-13T07:50:30.200Z,100244.87
2017-12-13T07:53:04.556Z,100244.96
2017-12-13T07:55:39.373Z,100226.16
2017-12-13T07:58:14.345Z,100219.23
2017-12-13T08:00:48.987Z,100226.90
2017-12-13T08:03:23.852Z,100222.92
2017-12-13T08:05:58.544Z,100215.88
2017-12-13T08:08:33.295Z,100208.59
2017-12-13T08:11:08.224Z,100206.98
2017-12-13T08:13:42.903Z,100206.48
2017-12-13T08:16:17.721Z,100185.13
2017-12-13T08:18:52.586Z,100190.92
2017-12-13T08:21:27.221Z,100179.11
2017-12-13T08:24:01.944Z,100165.42
2017-12-13T08:26:36.676Z,100164.83
2017-12-13T08:29:11.401Z,100156.91
2017-12-13T08:31:46.099Z,100159.47
2017-12-13T08:34:20.912Z,100158.76
2017-12-13T08:36:55.612Z,100140.15
2017-12-13T08:39:30.540Z,100124.63
2017-12-13T08:42:05.272Z,100133.03
2017-12-13T08:44:40.220Z,100124.66
2017-12-13T08:47:14.597Z,100129.52
2017-12-13T08:49:49.757Z,100120.38
2017-12-13T08:52:24.504Z,100116.76
2017-12-13T08:54:58.982Z,100113.41
2017-12-13T08:57:33.988Z,100113.54
2017-12-13T09:00:08.793Z,100119.05
2017-12-13T09:02:43.539Z,100103.14
2017-12-13T09:05:18.372Z,100097.76
2017-12-13T09:07:53.299Z,100094.97
2017-12-13T09:10:28.077Z,100079.73
2017-12-13T09:13:02.852Z,100076.55
2017-12-13T09:15:37.627Z,100084.16
2017-12-13T09:18:12.815Z,100084.69
2017-12-13T09:20:47.384Z,100077.87
2017-12-13T09:23:22.364Z,100076.20
2017-12-13T09:25:56.596Z,100076.62
2017-12-13T09:28:31.197Z,100068.26
2017-12-13T09:31:06.281Z,100054.78
2017-12-13T09:33:41.057Z,100040.27
2017-12-13T09:36:15.889Z,100056.95
2017-12-13T09:38:50.488Z,100039.14
2017-12-13T09:41:25.467Z,100030.11
2017-12-13T09:44:00.288Z,100030.34
2017-12-13T09:46:35.072Z,100028.39
2017-12-13T09:49:09.500Z,100028.55
2017-12-13T09:51:44.553Z,100015.92
2017-12-13T09:54:19.260Z,100012.65
2017-12-13T09:56:53.985Z,99999.73
2017-12-13T09:59:28.441Z,100000.22
2017-12-13T10:02:03.657Z,99993.56
2017-12-13T10:04:38.097Z,99981.95
2017-12-13T10:07:12.911Z,99973.97
2017-12-13T10:09:47.527Z,99964.17
2017-12-13T10:12:22.476Z,99943.77
2017-12-13T10:14:57.252Z,99939.73
2017-12-13T10:17:32.155Z,99935.64
2017-12-13T10:20:06.856Z,99925.49
2017-12-13T10:22:41.836Z,99908.70
2017-12-13T10:25:16.744Z,99901.23
2017-12-13T10:27:51.539Z,99897.61
2017-12-13T10:30:26.244Z,99879.62
2017-12-13T10:33:01.073Z,99874.30
2017-12-13T10:35:35.520Z,99855.94
2017-12-13T10:38:10.420Z,99848.18
2017-12-13T10:40:45.117Z,99832.64
2017-12-13T10:43:19.876Z,99825.48
2017-12-13T10:45:54.671Z,99817.83
2017-12-13T10:48:29.416Z,99794.38
2017-12-13T10:51:04.127Z,99800.45
2017-12-13T10:53:38.912Z,99779.25
2017-12-13T10:56:13.796Z,99774.20
2017-12-13T10:58:48.092Z,99762.49
2017-12-13T11:01:22.719Z,99756.38
2017-12-13T11:03:57.701Z,99749.48
2017-12-13T11:06:32.176Z,99735.71
2017-12-13T11:09:06.750Z,99732.25
2017-12-13T11:11:41.679Z,99714.13
2017-12-13T11:14:16.286Z,99717.78
2017-12-13T11:16:51.260Z,99689.31
2017-12-13T11:19:26.187Z,99701.67
2017-12-13T11:22:00.544Z,99675.57
2017-12-13T11:24:35.629Z,99676.84
2017-12-13T11:27:10.116Z,99662.30
2017-12-13T11:29:44.797Z,99648.25
2017-12-13T11:32:19.727Z,99657.48
2017-12-13T11:34:54.008Z,99634.10
2017-12-13T11:37:29.164Z,99634.22
2017-12-13T11:40:04.018Z,99628.53
2017-12-13T11:42:38.916Z,99620.54
2017-12-13T11:45:13.544Z,99611.30
2017-12-13T11:47:48.889Z,99595.67
2017-12-13T11:50:23.324Z,99602.98
2017-12-13T11:52:58.160Z,99574.73
2017-12-13T11:55:32.867Z,99574.47
2017-12-13T11:58:07.596Z,99566.42
2017-12-13T12:00:42.212Z,99561.14
2017-12-13T12:03:16.640Z,99550.55
2017-12-13T12:05:51.647Z,99541.86
2017-12-13T12:08:26.203Z,99537.14
2017-12-13T12:11:01.261Z,99535.22
2017-12-13T12:13:36.104Z,99522.98
2017-12-13T12:16:11.008Z,99522.78
2017-12-13T12:18:45.740Z,99508.55
2017-12-13T12:21:20.456Z,99507.77
2017-12-13T12:23:55.493Z,99497.13
2017-12-13T12:26:30.000Z,99480.67
2017-12-13T12:29:04.587Z,99480.61
2017-12-13T12:31:39.309Z,99469.57
2017-12-13T12:34:14.310Z,99461.30
2017-12-13T12:36:48.755Z,99458.32
2017-12-13T12:39:23.925Z,99451.95
2017-12-13T12:41:58.982Z,99437.84
2017-12-13T12:44:33.668Z,99433.27
2017-12-13T12:47:08.376Z,99424.28
2017-12-13T12:49:43.356Z,99420.13
2017-12-13T12:52:18.032Z,99423.02
2017-12-13T12:54:52.827Z,99405.34
2017-12-13T12:57:27.533Z,99397.63
2017-12-13T13:00:02.212Z,99391.03
2017-12-13T13:02:36.949Z,99391.55
2017-12-13T13:05:11.771Z,99380.50
2017-12-13T13:07:46.728Z,99381.55
2017-12-13T13:10:21.634Z,99375.33
2017-12-13T13:12:56.588Z,99370.13
2017-12-13T13:15:31.075Z,99368.04
2017-12-13T13:18:05.931Z,99351.13
2017-12-13T13:20:40.540Z,99356.94
2017-12-13T13:23:15.165Z,99341.57
2017-12-13T13:25:50.200Z,99349.05
2017-12-13T13:28:25.047Z,99334.75
2017-12-13T13:30:59.349Z,99319.36
2017-12-13T13:33:34.312Z,99315.63
2017-12-13T13:36:09.022Z,99311.41
2017-12-13T13:38:43.768Z,99309.63
2017-12-13T13:41:18.568Z,99296.02
2017-12-13T13:43:53.449Z,99292.16
2017-12-13T13:46:28.351Z,99288.30
2017-12-13T13:49:03.099Z,99281.97
2017-12-13T13:51:37.915Z,99272.41
2017-12-13T13:54:12.679Z,99273.56
2017-12-13T13:56:47.595Z,99264.00
2017-12-13T13:59:22.612Z,99256.26
2017-12-13T14:01:57.449Z,99256.52
2017-12-13T14:04:32.403Z,99241.95
2017-12-13T14:07:07.103Z,99241.20
2017-12-13T14:09:41.773Z,99239.50
2017-12-13T14:12:16.560Z,99229.39
2017-12-13T14:14:51.394Z,99230.82
2017-12-13T14:17:26.222Z,99223.03
2017-12-13T14:20:00.964Z,99228.45
2017-12-13T14:22:35.484Z,99217.69
2017-12-13T14:25:10.545Z,99206.48
2017-12-13T14:27:45.216Z,99216.02
2017-12-13T14:30:20.024Z,99209.30
2017-12-13T14:32:54.700Z,99203.84
2017-12-13T14:35:29.328Z,99205.67
2017-12-13T14:38:04.056Z,99196.17
2017-12-13T14:40:38.760Z,99206.85
2017-12-13T14:43:13.636Z,99194.69
2017-12-13T14:45:48.396Z,99197.26
2017-12-13T14:48:23.421Z,99188.44
2017-12-13T14:50:58.325Z,99185.06
2017-12-13T14:53:33.123Z,99183.45
2017-12-13T14:56:07.891Z,99180.20
2017-12-13T14:58:42.660Z,99178.16
2017-12-13T15:01:17.392Z,99170.98
2017-12-13T15:03:51.965Z,99186.78
2017-12-13T15:06:26.718Z,99164.14
2017-12-13T15:09:01.524Z,99164.88
2017-12-13T15:11:36.356Z,99159.53
2017-12-13T15:14:11.329Z,99161.88
2017-12-13T15:16:46.228Z,99155.31
2017-12-13T15:19:21.057Z,99147.33
2017-12-13T15:21:55.872Z,99144.88
2017-12-13T15:24:30.442Z,99137.72
2017-12-13T15:27:05.200Z,99132.19
2017-12-13T15:29:39.924Z,99117.83
2017-12-13T15:32:14.707Z,99129.55
2017-12-13T15:34:49.428Z,99116.28
2017-12-13T15:37:24.156Z,99115.76
2017-12-13T15:39:59.032Z,99105.44
2017-12-13T15:42:34.069Z,99110.78
2017-12-13T15:45:08.944Z,99101.11
2017-12-13T15:47:43.607Z,99100.77
2017-12-13T15:50:18.297Z,99095.41
2017-12-13T15:52:52.664Z,99098.32
2017-12-13T15:55:27.853Z,99096.09
2017-12-13T15:58:02.296Z,99089.22
2017-12-13T16:00:37.308Z,99094.50
2017-12-13T16:03:11.815Z,99091.97
2017-12-13T16:05:46.796Z,99107.31
2017-12-13T16:08:21.521Z,99080.47
2017-12-13T16:10:56.208Z,99075.55
2017-12-13T16:13:31.060Z,99073.69
2017-12-13T16:16:05.745Z,99077.52
2017-12-13T16:18:40.736Z,99079.09
2017-12-13T16:21:15.701Z,99062.20
2017-12-13T16:23:50.499Z,99074.62
2017-12-13T16:26:25.362Z,99070.13
2017-12-13T16:28:59.988Z,99063.11
2017-12-13T16:31:34.749Z,99060.78
2017-12-13T16:34:09.505Z,99064.95
2017-12-13T16:36:43.822Z,99057.79
2017-12-13T16:39:18.220Z,99055.63
2017-12-13T16:41:53.101Z,99058.29
2017-12-13T16:44:27.588Z,99046.38
2017-12-13T16:47:02.545Z,99055.43
2017-12-13T16:49:37.490Z,99051.02
2017-12-13T16:52:11.561Z,99038.69
2017-12-13T16:54:46.521Z,99044.02
2017-12-13T16:57:21.477Z,99040.08
2017-12-13T16:59:56.155Z,99032.92
2017-12-13T17:02:30.945Z,99029.38
2017-12-13T17:05:05.723Z,99028.72
2017-12-13T17:07:40.583Z,99043.76
2017-12-13T17:10:15.072Z,99012.00
2017-12-13T17:12:49.678Z,99020.34
2017-12-13T17:15:24.565Z,99006.59
2017-12-13T17:17:59.400Z,99006.30
2017-12-13T17:20:34.134Z,99000.08
2017-12-13T17:23:09.068Z,98994.98
2017-12-13T17:25:43.728Z,98989.97
2017-12-13T17:28:18.828Z,98990.99
2017-12-13T17:30:52.868Z,98979.55
2017-12-13T17:33:27.889Z,98977.75
2017-12-13T17:36:02.888Z,98981.31
2017-12-13T17:38:38.101Z,98968.59
2017-12-13T17:41:12.696Z,98968.53
2017-12-13T17:43:47.505Z,98964.77
2017-12-13T17:46:21.774Z,98951.52
2017-12-13T17:48:56.616Z,98952.35
2017-12-13T17:51:31.083Z,98943.46
2017-12-13T17:54:06.108Z,98936.30
2017-12-13T17:56:40.861Z,98939.90
2017-12-13T17:59:15.285Z,98938.66
2017-12-13T18:01:50.980Z,98930.80
2017-12-13T18:04:26.081Z,98921.65
2017-12-13T18:07:00.659Z,98917.58
2017-12-13T18:09:35.716Z,98914.98
2017-12-13T18:12:10.540Z,98911.88
2017-12-13T18:14:45.164Z,98917.34
2017-12-13T18:17:19.931Z,98906.55
2017-12-13T18:19:54.715Z,98901.88
2017-12-13T18:22:29.494Z,98890.98
2017-12-13T18:25:03.976Z,98890.05
2017-12-13T18:27:39.002Z,98876.91
2017-12-13T18:30:13.829Z,98875.01
2017-12-13T18:32:48.759Z,98861.82
2017-12-13T18:35:23.509Z,98850.71
2017-12-13T18:37:58.356Z,98843.02
2017-12-13T18:40:33.168Z,98825.31
2017-12-13T18:43:07.996Z,98821.16
2017-12-13T18:45:42.412Z,98814.34
2017-12-13T18:48:17.565Z,98812.50
2017-12-13T18:50:52.376Z,98800.90
2017-12-13T18:53:26.825Z,98801.80
2017-12-13T18:56:01.680Z,98781.13
2017-12-13T18:58:36.246Z,98782.29
2017-12-13T19:01:10.957Z,98774.77
2017-12-13T19:03:45.512Z,98769.94
2017-12-13T19:06:20.701Z,98759.09
2017-12-13T19:08:55.045Z,98749.47
2017-12-13T19:11:29.906Z,98736.90
2017-12-13T19:14:04.830Z,98731.62
2017-12-13T19:16:39.152Z,98720.47
2017-12-13T19:19:14.145Z,98709.56
2017-12-13T19:21:48.624Z,98699.05
2017-12-13T19:24:23.620Z,98695.91
2017-12-13T19:26:58.485Z,98707.47
2017-12-13T19:29:33.189Z,98698.22
2017-12-13T19:32:07.908Z,98676.18
2017-12-13T19:34:42.659Z,98680.25
2017-12-13T19:37:17.417Z,98664.59
2017-12-13T19:39:51.844Z,98649.47
2017-12-13T19:42:26.896Z,98647.56
2017-12-13T19:45:01.596Z,98632.23
2017-12-13T19:47:36.372Z,98624.84
2017-12-13T19:50:11.148Z,98610.73
2017-12-13T19:52:45.960Z,98603.39
2017-12-13T19:55:20.742Z,98596.84
2017-12-13T19:57:55.836Z,98589.42
2017-12-13T20:00:30.493Z,98575.02
2017-12-13T20:03:05.205Z,98581.50
2017-12-13T20:05:40.040Z,98561.09
2017-12-13T20:08:14.666Z,98549.46
2017-12-13T20:10:49.476Z,98545.03
2017-12-13T20:13:24.216Z,98531.40
2017-12-13T20:15:59.029Z,98534.16
2017-12-13T20:18:33.741Z,98522.03
2017-12-13T20:21:08.526Z,98506.41
2017-12-13T20:23:43.218Z,98494.03
2017-12-13T20:26:18.005Z,98491.04
2017-12-13T20:28:53.101Z,98467.73
2017-12-13T20:31:27.637Z,98472.99
2017-12-13T20:34:02.438Z,98452.87
2017-12-13T20:36:37.140Z,98436.97
2017-12-13T20:39:12.013Z,98434.80
2017-12-13T20:41:46.729Z,98431.92
2017-12-13T20:44:21.473Z,98425.48
2017-12-13T20:46:56.169Z,98404.17
2017-12-13T20:49:30.988Z,98392.75
2017-12-13T20:52:05.720Z,98387.94
2017-12-13T20:54:40.492Z,98384.92
2017-12-13T20:57:15.436Z,98368.15
2017-12-13T20:59:50.360Z,98367.38
2017-12-13T21:02:25.173Z,98347.36
2017-12-13T21:05:00.026Z,98347.77
2017-12-13T21:07:34.747Z,98338.78
2017-12-13T21:10:09.173Z,98331.30
2017-12-13T21:12:43.985Z,98317.20
2017-12-13T21:15:18.919Z,98304.92
2017-12-13T21:17:53.747Z,98297.16
2017-12-13T21:20:28.289Z,98292.61
2017-12-13T21:23:02.937Z,98285.51
2017-12-13T21:25:37.542Z,98269.80
2017-12-13T21:28:12.267Z,98252.41
2017-12-13T21:30:46.941Z,98248.64
2017-12-13T21:33:22.042Z,98237.91
2017-12-13T21:35:56.832Z,98235.59
2017-12-13T21:38:31.684Z,98216.05
2017-12-13T21:41:06.383Z,98204.27
2017-12-13T21:43:41.201Z,98202.73
2017-12-13T21:46:16.129Z,98197.63
2017-12-13T21:48:50.636Z,98184.44
2017-12-13T21:51:25.378Z,98182.88
2017-12-13T21:54:00.152Z,98169.20
2017-12-13T21:56:34.793Z,98152.47
2017-12-13T21:59:09.513Z,98142.67
2017-12-13T22:01:44.264Z,98141.89
2017-12-13T22:04:19.036Z,98130.69
2017-12-13T22:06:53.922Z,98119.77
2017-12-13T22:09:28.869Z,98109.70
2017-12-13T22:12:03.728Z,98099.39
2017-12-13T22:14:38.524Z,98087.30
2017-12-13T22:17:13.467Z,98096.41
2017-12-13T22:19:48.409Z,98088.16
2017-12-13T22:22:23.117Z,98085.26
2017-12-13T22:24:57.924Z,98073.08
2017-12-13T22:27:32.753Z,98076.67
2017-12-13T22:30:07.676Z,98073.23
2017-12-13T22:32:42.747Z,98065.52
2017-12-13T22:35:17.361Z,98069.48
2017-12-13T22:37:52.120Z,98066.11
2017-12-13T22:40:26.513Z,98063.28
2017-12-13T22:43:01.108Z,98069.91
2017-12-13T22:45:35.969Z,98058.96
2017-12-13T22:48:10.768Z,98061.22
2017-12-13T22:50:45.517Z,98065.22
2017-12-13T22:53:20.224Z,98061.05
2017-12-13T22:55:55.028Z,98057.94
2017-12-13T22:58:29.980Z,98035.33
2017-12-13T23:01:04.711Z,98037.28
2017-12-13T23:03:39.523Z,98032.14
2017-12-13T23:06:14.188Z,98035.13
2017-12-13T23:08:48.924Z,98031.38
2017-12-13T23:11:23.421Z,98016.83
2017-12-13T23:13:58.329Z,98015.44
2017-12-13T23:16:33.235Z,98012.48
2017-12-13T23:19:07.956Z,97996.74
2017-12-13T23:21:42.960Z,98011.40
2017-12-13T23:24:18.069Z,98011.75
2017-12-13T23:26:52.684Z,98000.92
2017-12-13T23:29:27.104Z,98001.70
2017-12-13T23:32:02.117Z,97996.91
2017-12-13T23:34:36.926Z,98012.45
2017-12-13T23:37:11.768Z,98009.25
2017-12-13T23:39:46.221Z,98017.17
2017-12-13T23:42:21.409Z,98017.70
2017-12-13T23:44:55.996Z,98028.74
2017-12-13T23:47:30.728Z,98029.55
2017-12-13T23:50:05.365Z,98037.60
2017-12-13T23:52:40.161Z,98024.55
2017-12-13T23:55:14.865Z,98028.22
2017-12-13T23:57:49.608Z,98029.20
